Time;durP1;ratioP1;P1;durP2;ratioP2;P2;SDS_P1;SDS_P2;PMS_P1;PMS_P2;Temp;Humidity;BMP_temperature;BMP_pressure;BME280_temperature;BME280_humidity;BME280_pressure;Samples;Min_cycle;Max_cycle;Signal;HPM_P1;HPM_P2
2024/01/17 00:01:35;;;;;;;6.3;3.9;;;;;;;;;;;;;
2024/01/17 00:04:01;;;;;;;5.3;3.4;;;;;;;;;;;;;
2024/01/17 00:06:26;;;;;;;4.7;3.5;;;;;;;;;;;;;
2024/01/17 00:08:52;;;;;;;8.5;5.8;;;;;;;;;;;;;
2024/01/17 00:11:18;;;;;;;10.4;6.3;;;;;;;;;;;;;
2024/01/17 00:13:44;;;;;;;11;6.7;;;;;;;;;;;;;
2024/01/17 00:16:09;;;;;;;12.1;6;;;;;;;;;;;;;
2024/01/17 00:18:39;;;;;;;12.3;6.5;;;;;;;;;;;;;
2024/01/17 00:21:04;;;;;;;9.1;6.1;;;;;;;;;;;;;
2024/01/17 00:23:29;;;;;;;7.7;5.3;;;;;;;;;;;;;
2024/01/17 00:25:54;;;;;;;7.1;5;;;;;;;;;;;;;
2024/01/17 00:28:22;;;;;;;7.5;4.4;;;;;;;;;;;;;
2024/01/17 00:30:46;;;;;;;7.7;4.6;;;;;;;;;;;;;
2024/01/17 00:33:12;;;;;;;6.7;4.2;;;;;;;;;;;;;
2024/01/17 00:35:39;;;;;;;5.9;4.1;;;;;;;;;;;;;
2024/01/17 00:38:05;;;;;;;6;4;;;;;;;;;;;;;
2024/01/17 00:40:30;;;;;;;5.4;3.4;;;;;;;;;;;;;
2024/01/17 00:42:58;;;;;;;4.6;3;;;;;;;;;;;;;
2024/01/17 00:45:23;;;;;;;4.6;3;;;;;;;;;;;;;
2024/01/17 00:47:53;;;;;;;6.5;3.6;;;;;;;;;;;;;
2024/01/17 00:50:18;;;;;;;7.6;4.5;;;;;;;;;;;;;
2024/01/17 00:52:46;;;;;;;6.9;4.1;;;;;;;;;;;;;
2024/01/17 00:55:11;;;;;;;5.4;4.1;;;;;;;;;;;;;
2024/01/17 00:57:39;;;;;;;6.9;4.2;;;;;;;;;;;;;
2024/01/17 01:00:05;;;;;;;6.8;3.9;;;;;;;;;;;;;
2024/01/17 01:02:37;;;;;;;6.1;3.8;;;;;;;;;;;;;
2024/01/17 01:05:10;;;;;;;6.2;3.6;;;;;;;;;;;;;
2024/01/17 01:07:38;;;;;;;5.6;3.7;;;;;;;;;;;;;
2024/01/17 01:10:04;;;;;;;5.6;3.5;;;;;;;;;;;;;
2024/01/17 01:12:34;;;;;;;5.6;3.7;;;;;;;;;;;;;
2024/01/17 01:15:00;;;;;;;10.3;6.1;;;;;;;;;;;;;
2024/01/17 01:17:26;;;;;;;8.5;5.3;;;;;;;;;;;;;
2024/01/17 01:19:51;;;;;;;8.2;5.3;;;;;;;;;;;;;
2024/01/17 01:22:19;;;;;;;6.8;3.9;;;;;;;;;;;;;
2024/01/17 01:24:44;;;;;;;5.8;4;;;;;;;;;;;;;
2024/01/17 01:27:09;;;;;;;6.4;4.4;;;;;;;;;;;;;
2024/01/17 01:29:37;;;;;;;6.1;3.9;;;;;;;;;;;;;
2024/01/17 01:32:03;;;;;;;6.2;3.9;;;;;;;;;;;;;
2024/01/17 01:34:33;;;;;;;5;3.6;;;;;;;;;;;;;
2024/01/17 01:37:02;;;;;;;6;3.7;;;;;;;;;;;;;
2024/01/17 01:39:29;;;;;;;6.4;4.2;;;;;;;;;;;;;
2024/01/17 01:42:02;;;;;;;5.5;3.8;;;;;;;;;;;;;
2024/01/17 01:44:26;;;;;;;6.2;3.9;;;;;;;;;;;;;
2024/01/17 01:46:54;;;;;;;4.5;3.6;;;;;;;;;;;;;
2024/01/17 01:49:23;;;;;;;5.5;3.9;;;;;;;;;;;;;
2024/01/17 01:51:53;;;;;;;5.6;3.9;;;;;;;;;;;;;
2024/01/17 01:54:24;;;;;;;4.6;3.6;;;;;;;;;;;;;
2024/01/17 01:56:52;;;;;;;5.3;3.2;;;;;;;;;;;;;
2024/01/17 01:59:19;;;;;;;4.5;3.1;;;;;;;;;;;;;
2024/01/17 02:01:50;;;;;;;3.7;3;;;;;;;;;;;;;
2024/01/17 02:04:24;;;;;;;5.4;2.9;;;;;;;;;;;;;
2024/01/17 02:06:51;;;;;;;5.5;2.7;;;;;;;;;;;;;
2024/01/17 02:09:17;;;;;;;3.5;2.4;;;;;;;;;;;;;
2024/01/17 02:11:52;;;;;;;3.3;2.7;;;;;;;;;;;;;
2024/01/17 02:14:19;;;;;;;3.5;2.5;;;;;;;;;;;;;
2024/01/17 02:16:46;;;;;;;4.6;3.1;;;;;;;;;;;;;
2024/01/17 02:19:13;;;;;;;4.9;3.5;;;;;;;;;;;;;
2024/01/17 02:21:39;;;;;;;5.7;3.7;;;;;;;;;;;;;
2024/01/17 02:24:08;;;;;;;5.9;4.2;;;;;;;;;;;;;
2024/01/17 02:26:33;;;;;;;2.8;2.1;;;;;;;;;;;;;
2024/01/17 02:28:58;;;;;;;5.3;4.5;;;;;;;;;;;;;
2024/01/17 02:31:27;;;;;;;3.4;2.7;;;;;;;;;;;;;
2024/01/17 02:33:52;;;;;;;5.3;4.8;;;;;;;;;;;;;
2024/01/17 02:36:18;;;;;;;5.3;4.1;;;;;;;;;;;;;
2024/01/17 02:38:43;;;;;;;4.1;3.5;;;;;;;;;;;;;
2024/01/17 02:41:09;;;;;;;3;2.4;;;;;;;;;;;;;
2024/01/17 02:43:34;;;;;;;3.3;2.3;;;;;;;;;;;;;
2024/01/17 02:46:01;;;;;;;2.9;2.4;;;;;;;;;;;;;
2024/01/17 02:48:27;;;;;;;2.9;2.1;;;;;;;;;;;;;
2024/01/17 02:50:54;;;;;;;3;2;;;;;;;;;;;;;
2024/01/17 02:53:18;;;;;;;2.1;1.8;;;;;;;;;;;;;
2024/01/17 02:55:45;;;;;;;2.6;2.2;;;;;;;;;;;;;
2024/01/17 02:58:10;;;;;;;3.3;2.2;;;;;;;;;;;;;
2024/01/17 03:00:42;;;;;;;5.1;3.2;;;;;;;;;;;;;
2024/01/17 03:03:02;;;;;;;3.7;2.8;;;;;;;;;;;;;
2024/01/17 03:05:30;;;;;;;5.2;3;;;;;;;;;;;;;
2024/01/17 03:07:55;;;;;;;3.9;2.8;;;;;;;;;;;;;
2024/01/17 03:10:23;;;;;;;3.4;2.6;;;;;;;;;;;;;
2024/01/17 03:12:48;;;;;;;3.3;2.4;;;;;;;;;;;;;
2024/01/17 03:15:14;;;;;;;3.9;2.7;;;;;;;;;;;;;
2024/01/17 03:17:39;;;;;;;3.4;2.5;;;;;;;;;;;;;
2024/01/17 03:20:10;;;;;;;3.5;2.7;;;;;;;;;;;;;
2024/01/17 03:22:36;;;;;;;4.7;2.8;;;;;;;;;;;;;
2024/01/17 03:25:02;;;;;;;3.3;2.5;;;;;;;;;;;;;
2024/01/17 03:27:32;;;;;;;3.9;2.6;;;;;;;;;;;;;
2024/01/17 03:30:01;;;;;;;7;4.1;;;;;;;;;;;;;
2024/01/17 03:32:26;;;;;;;10.7;5.7;;;;;;;;;;;;;
2024/01/17 03:34:51;;;;;;;7.7;4.1;;;;;;;;;;;;;
2024/01/17 03:37:16;;;;;;;6.8;4.5;;;;;;;;;;;;;
2024/01/17 03:39:44;;;;;;;6.7;4.3;;;;;;;;;;;;;
2024/01/17 03:42:14;;;;;;;4.8;3.3;;;;;;;;;;;;;
2024/01/17 03:44:34;;;;;;;2.7;1.9;;;;;;;;;;;;;
2024/01/17 03:47:02;;;;;;;2.8;2.1;;;;;;;;;;;;;
2024/01/17 03:49:28;;;;;;;4;2.7;;;;;;;;;;;;;
2024/01/17 03:51:55;;;;;;;3.3;2.2;;;;;;;;;;;;;
2024/01/17 03:54:19;;;;;;;3.5;2.4;;;;;;;;;;;;;
2024/01/17 03:56:46;;;;;;;4.8;3.2;;;;;;;;;;;;;
2024/01/17 03:59:11;;;;;;;3.4;2.6;;;;;;;;;;;;;
2024/01/17 04:02:53;;;;;;;4.3;2.7;;;;;;;-0.58;87.54688;922.3248;;;;
2024/01/17 04:05:25;;;;;;;3.1;2.2;;;;;;;-0.62;88.1377;922.2338;;;;
2024/01/17 04:07:51;;;;;;;2.8;2.1;;;;;;;-0.5;87.875;922.155;;;;
2024/01/17 04:10:17;;;;;;;3.2;1.9;;;;;;;-0.54;88.02344;922.215;;;;
2024/01/17 04:12:42;;;;;;;3.2;2;;;;;;;-0.41;87.86035;922.0734;;;;
2024/01/17 04:15:18;;;;;;;3;2;;;;;;;-0.47;87.8584;922.1025;;;;
2024/01/17 04:17:44;;;;;;;2.5;2.3;;;;;;;-0.48;87.72461;922.057;;;;
2024/01/17 04:20:09;;;;;;;2.7;2;;;;;;;-0.35;87.48438;922.0189;;;;
2024/01/17 04:22:37;;;;;;;3.5;2.4;;;;;;;-0.25;86.79199;922.0055;;;;
2024/01/17 04:25:07;;;;;;;4.2;3.1;;;;;;;-0.28;87.16504;922.0659;;;;
2024/01/17 04:27:32;;;;;;;2.4;2.2;;;;;;;-0.4;88.26465;922.0905;;;;
2024/01/17 04:29:57;;;;;;;3.8;2;;;;;;;-0.43;88.61328;922.0252;;;;
2024/01/17 04:32:23;;;;;;;5.7;3.1;;;;;;;-0.34;88.73242;922.03;;;;
2024/01/17 04:34:48;;;;;;;6.4;3.1;;;;;;;-0.1;88.22461;922.0403;;;;
2024/01/17 04:37:13;;;;;;;4.3;2.8;;;;;;;-0.34;88.6416;921.998;;;;
2024/01/17 04:39:46;;;;;;;5.8;3.5;;;;;;;-0.35;88.88672;922.0432;;;;
2024/01/17 04:42:12;;;;;;;22.6;11.5;;;;;;;-0.42;88.91602;922.0372;;;;
2024/01/17 04:44:43;;;;;;;7.6;4.9;;;;;;;-0.39;88.84375;922.0305;;;;
2024/01/17 04:47:07;;;;;;;3.4;2.6;;;;;;;-0.39;88.93262;921.9295;;;;
2024/01/17 04:49:33;;;;;;;3.3;2.3;;;;;;;-0.33;88.80273;921.9373;;;;
2024/01/17 04:52:03;;;;;;;2.6;2.4;;;;;;;-0.39;89.30176;921.9266;;;;
2024/01/17 04:54:30;;;;;;;2.4;2.2;;;;;;;-0.37;88.97168;921.8426;;;;
2024/01/17 04:56:53;;;;;;;2.5;1.9;;;;;;;-0.4;89.27539;921.7812;;;;
2024/01/17 04:59:21;;;;;;;3.2;2.4;;;;;;;-0.29;89.07617;921.7597;;;;
2024/01/17 05:01:47;;;;;;;3.4;2.9;;;;;;;-0.34;89.04199;921.7806;;;;
2024/01/17 05:04:14;;;;;;;2.5;2;;;;;;;-0.25;88.90723;921.5801;;;;
2024/01/17 05:06:46;;;;;;;3.7;2.8;;;;;;;-0.08;87.86328;921.6163;;;;
2024/01/17 05:09:17;;;;;;;4.2;2.2;;;;;;;-0.28;89.40234;921.5544;;;;
2024/01/17 05:11:40;;;;;;;2.8;1.9;;;;;;;-0.28;89.68066;921.4919;;;;
2024/01/17 05:14:10;;;;;;;2.4;2.1;;;;;;;-0.24;89.55469;921.463;;;;
2024/01/17 05:16:41;;;;;;;3.4;2;;;;;;;-0.08;88.09473;921.562;;;;
2024/01/17 05:19:10;;;;;;;3.6;2.2;;;;;;;0.02;87.57227;921.4833;;;;
2024/01/17 05:21:35;;;;;;;3.1;1.6;;;;;;;0.18;87.21387;921.4348;;;;
2024/01/17 05:24:05;;;;;;;3.2;2;;;;;;;0.07;87.31348;921.399;;;;
2024/01/17 05:26:31;;;;;;;2.4;2.1;;;;;;;0.08;87.5293;921.3844;;;;
2024/01/17 05:29:03;;;;;;;3.1;2.2;;;;;;;0.18;87.70605;921.3457;;;;
2024/01/17 05:31:35;;;;;;;3.1;2.3;;;;;;;0.04;88.22168;921.2341;;;;
2024/01/17 05:34:05;;;;;;;2.4;1.8;;;;;;;0.1;87.94336;921.1789;;;;
2024/01/17 05:36:30;;;;;;;3.8;2.8;;;;;;;0.01;88.8291;921.0942;;;;
2024/01/17 05:38:57;;;;;;;9.3;6.7;;;;;;;-0.02;89.06641;921.1418;;;;
2024/01/17 05:41:22;;;;;;;10.5;7.2;;;;;;;-0.04;89.58594;921.0022;;;;
2024/01/17 05:43:47;;;;;;;9.5;6.7;;;;;;;-0.04;89.74219;920.9138;;;;
2024/01/17 05:46:21;;;;;;;8;6.4;;;;;;;0.01;89.67383;920.9267;;;;
2024/01/17 05:48:52;;;;;;;6.3;4.5;;;;;;;0.06;88.89453;920.981;;;;
2024/01/17 05:51:20;;;;;;;7.1;4.3;;;;;;;0.1;89.04883;920.8739;;;;
2024/01/17 05:53:45;;;;;;;13.8;10;;;;;;;0;89.61816;920.8742;;;;
2024/01/17 05:56:12;;;;;;;12.5;8.3;;;;;;;0.06;89.48438;920.8652;;;;
2024/01/17 05:58:42;;;;;;;8.2;5.6;;;;;;;0.05;89.39355;920.8705;;;;
2024/01/17 06:01:11;;;;;;;9;6.6;;;;;;;0.01;89.58594;920.7867;;;;
2024/01/17 06:03:40;;;;;;;8.8;6.3;;;;;;;0.03;89.58789;920.7347;;;;
2024/01/17 06:06:14;;;;;;;7.7;5.4;;;;;;;-0.04;89.4082;920.6376;;;;
2024/01/17 06:08:44;;;;;;;5.6;4.1;;;;;;;0;89.42871;920.663;;;;
2024/01/17 06:11:14;;;;;;;14.8;10.3;;;;;;;0.07;89.47559;920.5916;;;;
2024/01/17 06:13:40;;;;;;;5.5;4.9;;;;;;;0.05;89.34863;920.5772;;;;
2024/01/17 06:16:06;;;;;;;19.7;12.7;;;;;;;0.09;89.76855;920.5497;;;;
2024/01/17 06:18:34;;;;;;;28.7;18.7;;;;;;;-0.04;90.71094;920.6071;;;;
2024/01/17 06:21:00;;;;;;;40.9;21.7;;;;;;;0.05;90.5498;920.6193;;;;
2024/01/17 06:23:32;;;;;;;36.9;18.1;;;;;;;0.09;90.4043;920.5497;;;;
2024/01/17 06:26:02;;;;;;;11.4;7.5;;;;;;;0.16;89.65039;920.5457;;;;
2024/01/17 06:28:28;;;;;;;54.9;25.1;;;;;;;0.08;90.26855;920.6473;;;;
2024/01/17 06:31:00;;;;;;;20.7;11.7;;;;;;;0.28;89.74219;920.5098;;;;
2024/01/17 06:33:32;;;;;;;151.5;60.1;;;;;;;0.23;90.11133;920.5292;;;;
2024/01/17 06:36:05;;;;;;;119.7;44.5;;;;;;;0.3;90.02441;920.5055;;;;
2024/01/17 06:38:34;;;;;;;93.8;37.5;;;;;;;0.23;90.33691;920.5245;;;;
2024/01/17 06:40:59;;;;;;;13.6;8.3;;;;;;;0.26;90.38477;920.5492;;;;
2024/01/17 06:43:25;;;;;;;20.7;13;;;;;;;0.28;90.43555;920.5278;;;;
2024/01/17 06:45:50;;;;;;;21.9;10.8;;;;;;;0.28;90.86816;920.4675;;;;
2024/01/17 06:48:15;;;;;;;174.3;78.5;;;;;;;0.38;90.85645;920.3683;;;;
2024/01/17 06:50:43;;;;;;;180;84.9;;;;;;;0.49;90.24414;920.3063;;;;
2024/01/17 06:53:09;;;;;;;100.2;55.5;;;;;;;0.43;90.24316;920.2349;;;;
2024/01/17 06:55:39;;;;;;;174.4;98.6;;;;;;;0.29;90.51563;920.2189;;;;
2024/01/17 06:58:04;;;;;;;149.5;98.3;;;;;;;0.46;90.03711;920.2925;;;;
2024/01/17 07:00:29;;;;;;;123.8;88.5;;;;;;;0.31;90.36328;920.4008;;;;
2024/01/17 07:02:57;;;;;;;36;25.1;;;;;;;0.44;89.91211;920.2422;;;;
2024/01/17 07:05:23;;;;;;;32;17.2;;;;;;;0.44;89.56543;920.253;;;;
2024/01/17 07:07:55;;;;;;;24.7;12.7;;;;;;;0.51;89.4668;920.4131;;;;
2024/01/17 07:10:26;;;;;;;43.1;32.1;;;;;;;0.56;89.89258;920.5276;;;;
2024/01/17 07:12:52;;;;;;;18.1;16.1;;;;;;;0.66;89.59961;920.6156;;;;
2024/01/17 07:15:17;;;;;;;12.3;8.3;;;;;;;0.62;89.94922;920.6127;;;;
2024/01/17 07:17:41;;;;;;;10.6;7;;;;;;;0.67;89.60352;920.5956;;;;
2024/01/17 07:20:16;;;;;;;9.4;6.5;;;;;;;0.59;89.7002;920.5031;;;;
2024/01/17 07:22:41;;;;;;;6.7;5;;;;;;;0.63;89.50488;920.4781;;;;
2024/01/17 07:25:05;;;;;;;9;5.5;;;;;;;0.58;89.66211;920.5444;;;;
2024/01/17 07:27:33;;;;;;;8.9;5.3;;;;;;;0.61;89.45605;920.4778;;;;
2024/01/17 07:29:58;;;;;;;7.9;5.2;;;;;;;0.7;89.69824;920.3337;;;;
2024/01/17 07:32:29;;;;;;;8;5.1;;;;;;;0.73;89.19336;920.2653;;;;
2024/01/17 07:34:58;;;;;;;7.5;4.4;;;;;;;0.75;89.375;920.1873;;;;
2024/01/17 07:37:23;;;;;;;6.2;4.3;;;;;;;0.71;89.55566;920.2658;;;;
2024/01/17 07:39:53;;;;;;;4.8;3.8;;;;;;;0.69;89.42871;920.2529;;;;
2024/01/17 07:42:24;;;;;;;5.3;3.4;;;;;;;0.71;89.66504;920.1122;;;;
2024/01/17 07:44:49;;;;;;;4.5;3.2;;;;;;;0.76;89.77734;919.9932;;;;
2024/01/17 07:47:14;;;;;;;4.5;3.3;;;;;;;0.82;89.73633;920.0125;;;;
2024/01/17 07:49:40;;;;;;;4.8;3.6;;;;;;;0.93;89.21094;919.8661;;;;
2024/01/17 07:52:10;;;;;;;4.1;3.1;;;;;;;0.98;88.57422;920.0291;;;;
2024/01/17 07:54:36;;;;;;;5.8;3.3;;;;;;;0.93;88.60742;919.967;;;;
2024/01/17 07:57:06;;;;;;;5.8;4.3;;;;;;;0.9;88.74902;919.9119;;;;
2024/01/17 07:59:35;;;;;;;5.9;4.3;;;;;;;0.91;88.73828;919.7184;;;;
2024/01/17 08:02:02;;;;;;;7.5;4.9;;;;;;;0.93;88.83105;919.7344;;;;
2024/01/17 08:04:28;;;;;;;8.4;5.5;;;;;;;1.01;89.27246;919.5212;;;;
2024/01/17 08:06:54;;;;;;;8;4.7;;;;;;;1.05;89.5166;919.463;;;;
2024/01/17 08:09:24;;;;;;;8;4.9;;;;;;;1.09;89.87988;919.4205;;;;
2024/01/17 08:11:46;;;;;;;5.8;3.8;;;;;;;1.18;90.67188;919.3191;;;;
2024/01/17 08:14:14;;;;;;;6.6;3.5;;;;;;;1.25;92.2627;919.2905;;;;
2024/01/17 08:16:39;;;;;;;5.2;3.3;;;;;;;1.35;93.31445;919.2737;;;;
2024/01/17 08:19:10;;;;;;;6.5;3.6;;;;;;;1.45;93.87012;919.2659;;;;
2024/01/17 08:21:41;;;;;;;8.3;4.8;;;;;;;1.56;94.37695;919.2625;;;;
2024/01/17 08:24:09;;;;;;;9.1;5.4;;;;;;;1.6;93.68066;919.2495;;;;
2024/01/17 08:26:34;;;;;;;6.8;4.8;;;;;;;1.66;92.99023;919.1447;;;;
2024/01/17 08:29:01;;;;;;;5.9;4.3;;;;;;;1.78;92.25391;919.1161;;;;
2024/01/17 08:31:26;;;;;;;5;3.5;;;;;;;1.76;92.07227;919.0925;;;;
2024/01/17 08:33:56;;;;;;;3.1;2.5;;;;;;;1.82;92.7998;919.0432;;;;
2024/01/17 08:36:23;;;;;;;4.2;2.2;;;;;;;2.01;93.88086;919.0374;;;;
2024/01/17 08:38:48;;;;;;;7.1;3.7;;;;;;;2.1;94.10449;919.021;;;;
2024/01/17 08:41:17;;;;;;;7.2;4.4;;;;;;;2.19;93.57324;918.8986;;;;
2024/01/17 08:43:42;;;;;;;4.6;3.2;;;;;;;2.36;92.65039;918.8462;;;;
2024/01/17 08:46:11;;;;;;;5.1;3.3;;;;;;;2.37;92.51953;918.822;;;;
2024/01/17 08:48:35;;;;;;;4.5;3.2;;;;;;;2.35;92.44629;918.8281;;;;
2024/01/17 08:51:02;;;;;;;4.5;2.9;;;;;;;2.35;92.96191;918.7166;;;;
2024/01/17 08:53:29;;;;;;;5.6;3.6;;;;;;;2.24;93.45117;918.6827;;;;
2024/01/17 08:55:53;;;;;;;6.7;3.6;;;;;;;2.26;93.79102;918.6561;;;;
2024/01/17 08:58:16;;;;;;;4.6;3;;;;;;;2.45;93.33105;918.6508;;;;
2024/01/17 09:00:45;;;;;;;5.2;2.9;;;;;;;2.48;93.33691;918.5316;;;;
2024/01/17 09:03:18;;;;;;;5;3.5;;;;;;;2.48;93.86328;918.3817;;;;
2024/01/17 09:05:46;;;;;;;5.5;3.7;;;;;;;2.5;94.02637;918.4604;;;;
2024/01/17 09:08:11;;;;;;;4.1;3.2;;;;;;;2.65;93.17285;918.3925;;;;
2024/01/17 09:10:42;;;;;;;7.7;4.4;;;;;;;2.72;92.74902;918.3317;;;;
2024/01/17 09:13:13;;;;;;;16;9.3;;;;;;;2.83;92.31543;918.287;;;;
2024/01/17 09:15:41;;;;;;;12.5;7.5;;;;;;;2.73;93.04492;918.1785;;;;
2024/01/17 09:18:07;;;;;;;10.5;6.9;;;;;;;2.71;93.24316;918.0779;;;;
2024/01/17 09:20:39;;;;;;;10;6;;;;;;;2.86;93.0293;918.0781;;;;
2024/01/17 09:23:06;;;;;;;11.2;6.5;;;;;;;2.86;93.55469;918.0114;;;;
2024/01/17 09:25:32;;;;;;;9.5;5.4;;;;;;;2.84;93.54004;917.9877;;;;
2024/01/17 09:28:00;;;;;;;10.7;5.7;;;;;;;2.85;93.62012;917.8965;;;;
2024/01/17 09:30:33;;;;;;;9.9;5.5;;;;;;;2.9;93.65234;917.8638;;;;
2024/01/17 09:33:04;;;;;;;5.7;2.7;;;;;;;3;92.72266;917.8344;;;;
2024/01/17 09:35:32;;;;;;;3.1;2.1;;;;;;;3.15;91.83398;917.7534;;;;
2024/01/17 09:37:55;;;;;;;10.4;5.9;;;;;;;3.18;91.14648;917.7977;;;;
2024/01/17 09:40:24;;;;;;;18.5;11.5;;;;;;;3.09;91.64258;917.743;;;;
2024/01/17 09:42:56;;;;;;;21.4;12.8;;;;;;;3.09;91.88965;917.7957;;;;
2024/01/17 09:45:21;;;;;;;17.9;12.6;;;;;;;3.13;92.20215;917.843;;;;
2024/01/17 09:47:50;;;;;;;22.6;12.9;;;;;;;3.07;92.40039;917.7634;;;;
2024/01/17 09:50:18;;;;;;;27;15.1;;;;;;;3.17;92.52441;917.6403;;;;
2024/01/17 09:52:43;;;;;;;7.3;4.5;;;;;;;3.42;90.70215;917.7399;;;;
2024/01/17 09:55:17;;;;;;;25.7;14.9;;;;;;;3.41;90.19531;917.5645;;;;
2024/01/17 09:57:43;;;;;;;16.6;10;;;;;;;3.29;90.64355;917.5867;;;;
2024/01/17 10:00:09;;;;;;;19;10.9;;;;;;;3.43;90.33398;917.4883;;;;
2024/01/17 10:02:33;;;;;;;10.5;7;;;;;;;3.39;90.76367;917.4918;;;;
2024/01/17 10:04:59;;;;;;;7.9;5.5;;;;;;;3.56;90.29297;917.4656;;;;
2024/01/17 10:07:31;;;;;;;9.9;6.1;;;;;;;3.51;90.64258;917.4617;;;;
2024/01/17 10:10:04;;;;;;;14.7;8.4;;;;;;;3.59;90.79492;917.483;;;;
2024/01/17 10:13:10;;;;;;;12.7;6.6;;;;;;;3.55;90.97852;917.4239;;;;
2024/01/17 10:15:38;;;;;;;12.8;7.3;;;;;;;3.6;91.22363;917.3965;;;;
2024/01/17 10:18:06;;;;;;;8.3;5.5;;;;;;;3.56;91.82031;917.4012;;;;
2024/01/17 10:20:28;;;;;;;7.5;4.9;;;;;;;3.56;92.50586;917.3627;;;;
2024/01/17 10:22:57;;;;;;;11.9;6.3;;;;;;;3.61;92.20508;917.259;;;;
2024/01/17 10:25:23;;;;;;;13.7;7.1;;;;;;;3.58;92.60156;917.2241;;;;
2024/01/17 10:27:52;;;;;;;15.7;9.5;;;;;;;3.48;93.28809;917.257;;;;
2024/01/17 10:30:17;;;;;;;103.5;43.5;;;;;;;3.44;93.7041;917.1076;;;;
2024/01/17 10:32:44;;;;;;;37.1;18.1;;;;;;;3.37;94.49902;917.0836;;;;
2024/01/17 10:35:13;;;;;;;20.6;11.6;;;;;;;3.49;93.97461;917.0226;;;;
2024/01/17 10:37:43;;;;;;;46.9;21.7;;;;;;;3.49;94.21094;917.0793;;;;
2024/01/17 10:40:11;;;;;;;25.2;13.2;;;;;;;3.51;94.95605;916.9534;;;;
2024/01/17 10:42:34;;;;;;;17.8;10;;;;;;;3.63;95.11719;916.9515;;;;
2024/01/17 10:45:08;;;;;;;15.4;9.6;;;;;;;3.57;94.72266;916.9425;;;;
2024/01/17 10:47:33;;;;;;;14.2;8.7;;;;;;;3.52;95.03906;916.8622;;;;
2024/01/17 10:50:08;;;;;;;12.3;8;;;;;;;3.56;95.24707;916.8465;;;;
2024/01/17 10:52:38;;;;;;;21.7;15.2;;;;;;;3.56;94.7207;916.8702;;;;
2024/01/17 10:55:07;;;;;;;19.8;13;;;;;;;3.46;94.59766;916.7481;;;;
2024/01/17 10:57:32;;;;;;;26.3;19;;;;;;;3.58;94.47754;916.8237;;;;
2024/01/17 11:00:02;;;;;;;29.6;21;;;;;;;3.55;94.39355;916.7662;;;;
2024/01/17 11:02:26;;;;;;;75.6;64.6;;;;;;;3.59;94.2666;916.7678;;;;
2024/01/17 11:04:53;;;;;;;19.7;17;;;;;;;3.61;95.55078;916.6384;;;;
2024/01/17 11:07:21;;;;;;;11.4;8.1;;;;;;;3.65;95.45996;916.5463;;;;
2024/01/17 11:09:49;;;;;;;10.3;7.4;;;;;;;3.75;95.45996;916.6052;;;;
2024/01/17 11:12:15;;;;;;;8.3;6.2;;;;;;;3.94;94.81445;916.5392;;;;
2024/01/17 11:14:44;;;;;;;12.9;7.4;;;;;;;3.97;94.74414;916.5344;;;;
2024/01/17 11:17:12;;;;;;;13;9;;;;;;;4.01;94.71777;916.5465;;;;
2024/01/17 11:19:37;;;;;;;14.9;8.5;;;;;;;4;94.39063;916.4069;;;;
2024/01/17 11:22:05;;;;;;;11.5;7.9;;;;;;;4.01;94.13574;916.367;;;;
2024/01/17 11:24:30;;;;;;;10;6.1;;;;;;;4.23;93.66406;916.2667;;;;
2024/01/17 11:26:59;;;;;;;10.9;6.6;;;;;;;4.13;93.79004;916.0998;;;;
2024/01/17 11:29:24;;;;;;;12.7;7;;;;;;;4.21;93.01855;916.166;;;;
2024/01/17 11:31:49;;;;;;;11.7;7.5;;;;;;;4.16;93.31445;916.0352;;;;
2024/01/17 11:34:21;;;;;;;15.4;8.4;;;;;;;4.33;93.54102;916.0884;;;;
2024/01/17 11:36:53;;;;;;;17.1;9.9;;;;;;;4.38;93.37109;915.9992;;;;
2024/01/17 11:39:24;;;;;;;14;8.9;;;;;;;4.3;93.37598;915.861;;;;
2024/01/17 11:41:49;;;;;;;10;7.1;;;;;;;4.5;93.79297;915.7531;;;;
2024/01/17 11:44:14;;;;;;;10.6;7;;;;;;;4.6;93.69141;915.8024;;;;
2024/01/17 11:46:39;;;;;;;9.3;5.5;;;;;;;4.73;93.4707;915.6609;;;;
2024/01/17 11:49:10;;;;;;;8.7;5.9;;;;;;;4.89;93.82227;915.5972;;;;
2024/01/17 11:51:38;;;;;;;10.8;5.6;;;;;;;5.08;92.78125;915.4542;;;;
2024/01/17 11:54:03;;;;;;;8.1;5.2;;;;;;;5.23;92.00293;915.3603;;;;
2024/01/17 11:56:34;;;;;;;6.6;4.5;;;;;;;5.33;90.96387;915.2576;;;;
2024/01/17 11:59:04;;;;;;;8.9;4.6;;;;;;;5.48;91.23145;915.2668;;;;
2024/01/17 12:01:29;;;;;;;9.7;6.3;;;;;;;5.46;90.62012;915.1953;;;;
2024/01/17 12:03:54;;;;;;;8.1;6;;;;;;;5.61;89.97363;915.101;;;;
2024/01/17 12:06:23;;;;;;;7.4;5.3;;;;;;;5.71;90.36719;915.0992;;;;
2024/01/17 12:08:47;;;;;;;6.9;4.8;;;;;;;5.8;90.11523;915.1014;;;;
2024/01/17 12:11:18;;;;;;;7.1;4.6;;;;;;;5.6;88.66211;915.0439;;;;
2024/01/17 12:13:43;;;;;;;7.1;4.3;;;;;;;5.65;89.3623;915.099;;;;
2024/01/17 12:16:08;;;;;;;4.9;3.8;;;;;;;5.49;89.92676;915.0016;;;;
2024/01/17 12:18:33;;;;;;;7.6;4.8;;;;;;;5.39;90.61426;914.9991;;;;
2024/01/17 12:21:01;;;;;;;8.8;5.1;;;;;;;5.39;90.18555;914.9604;;;;
2024/01/17 12:23:24;;;;;;;8.2;5.3;;;;;;;5.15;90.47461;914.9087;;;;
2024/01/17 12:25:49;;;;;;;7.7;5;;;;;;;5.13;90.32422;914.9372;;;;
2024/01/17 12:28:14;;;;;;;8.2;4.8;;;;;;;5.21;90.19238;914.8469;;;;
2024/01/17 12:30:47;;;;;;;8.8;5.4;;;;;;;5.13;90.66211;914.8339;;;;
2024/01/17 12:33:12;;;;;;;8.1;5.3;;;;;;;5.1;91.31934;914.7885;;;;
2024/01/17 12:35:42;;;;;;;9;5.7;;;;;;;5.14;91.60938;914.5524;;;;
2024/01/17 12:38:15;;;;;;;9.6;5.9;;;;;;;5.16;91.66016;914.668;;;;
2024/01/17 12:40:46;;;;;;;6.8;4.9;;;;;;;5.23;91.73242;914.7553;;;;
2024/01/17 12:43:25;;;;;;;9.1;5.7;;;;;;;5.15;91.88184;914.5522;;;;
2024/01/17 12:45:53;;;;;;;7.5;5.6;;;;;;;5.15;91.97168;914.4922;;;;
2024/01/17 12:48:19;;;;;;;8;5.1;;;;;;;5.14;92.40039;914.4726;;;;
2024/01/17 12:50:46;;;;;;;10.3;5.7;;;;;;;5.23;92.28516;914.4208;;;;
2024/01/17 12:53:12;;;;;;;6.5;4.5;;;;;;;5.29;92.29688;914.2869;;;;
2024/01/17 12:55:42;;;;;;;8.6;5;;;;;;;5.32;91.79492;914.4846;;;;
2024/01/17 12:58:20;;;;;;;8.5;5.6;;;;;;;5.31;91.73828;914.3766;;;;
2024/01/17 13:00:50;;;;;;;7.8;5.5;;;;;;;5.29;91.86816;914.3098;;;;
2024/01/17 13:03:21;;;;;;;6.8;5.3;;;;;;;5.37;91.60156;914.3942;;;;
2024/01/17 13:05:44;;;;;;;8.2;5.4;;;;;;;5.34;92.00195;914.3677;;;;
2024/01/17 13:08:09;;;;;;;8.3;5.7;;;;;;;5.37;92.14258;914.4384;;;;
2024/01/17 13:10:34;;;;;;;12.4;7.2;;;;;;;5.37;92.04297;914.365;;;;
2024/01/17 13:13:07;;;;;;;24;11.8;;;;;;;5.4;92.25195;914.3221;;;;
2024/01/17 13:15:33;;;;;;;32.8;14.7;;;;;;;5.47;92.40332;914.2862;;;;
2024/01/17 13:17:58;;;;;;;22.5;12.7;;;;;;;5.65;92.69238;914.2922;;;;
2024/01/17 13:20:27;;;;;;;16.8;8.7;;;;;;;5.7;93.0752;914.3889;;;;
2024/01/17 13:22:53;;;;;;;11.6;7.5;;;;;;;5.71;92.43164;914.3106;;;;
2024/01/17 13:25:20;;;;;;;10.1;6.7;;;;;;;5.8;92.22461;914.2054;;;;
2024/01/17 13:27:47;;;;;;;18.5;11.4;;;;;;;5.82;91.99414;914.2054;;;;
2024/01/17 13:30:16;;;;;;;20.6;12.6;;;;;;;5.95;91.09473;914.2397;;;;
2024/01/17 13:32:47;;;;;;;30.5;16;;;;;;;5.79;90.92676;914.3301;;;;
2024/01/17 13:35:11;;;;;;;26.8;14.1;;;;;;;5.68;91.29883;914.3962;;;;
2024/01/17 13:37:45;;;;;;;21.7;13.2;;;;;;;5.68;91.54492;914.3244;;;;
2024/01/17 13:40:11;;;;;;;19.6;11.6;;;;;;;5.65;91.75391;914.3389;;;;
2024/01/17 13:42:41;;;;;;;17.5;11.2;;;;;;;5.61;91.58789;914.3314;;;;
2024/01/17 13:45:08;;;;;;;16;9.8;;;;;;;5.54;92.33984;914.3699;;;;
2024/01/17 13:47:32;;;;;;;13.2;9.3;;;;;;;5.57;92.56055;914.3466;;;;
2024/01/17 13:50:10;;;;;;;14.8;10.1;;;;;;;5.56;92.45703;914.3578;;;;
2024/01/17 13:52:37;;;;;;;17.4;11.8;;;;;;;5.51;92.33398;914.3709;;;;
2024/01/17 13:54:59;;;;;;;12.6;8.9;;;;;;;5.55;92.93945;914.3508;;;;
2024/01/17 13:57:27;;;;;;;13.1;8.6;;;;;;;5.59;93.12988;914.2067;;;;
2024/01/17 13:59:51;;;;;;;13.5;8.1;;;;;;;5.58;93.71289;914.2921;;;;
2024/01/17 14:02:18;;;;;;;13.1;9;;;;;;;5.64;93.6709;914.3184;;;;
2024/01/17 14:04:49;;;;;;;15.4;9.8;;;;;;;5.64;93.65918;914.2609;;;;
2024/01/17 14:07:14;;;;;;;14.1;9.2;;;;;;;5.64;93.52441;914.2586;;;;
2024/01/17 14:09:39;;;;;;;11.1;8.7;;;;;;;5.62;93.63281;914.0938;;;;
2024/01/17 14:12:05;;;;;;;15.9;9.9;;;;;;;5.65;93.31152;914.2489;;;;
2024/01/17 14:14:30;;;;;;;17.4;10;;;;;;;5.63;93.46582;914.1308;;;;
2024/01/17 14:16:58;;;;;;;14.4;8.2;;;;;;;5.56;93.93457;914.1525;;;;
2024/01/17 14:19:32;;;;;;;11.4;7;;;;;;;5.59;94.42871;914.1128;;;;
2024/01/17 14:22:04;;;;;;;11.5;7.1;;;;;;;5.57;94.20801;914.038;;;;
2024/01/17 14:24:29;;;;;;;12;7.8;;;;;;;5.46;94.25195;914.1379;;;;
2024/01/17 14:26:54;;;;;;;13.2;9.2;;;;;;;5.4;94.18359;914.1153;;;;
2024/01/17 14:29:23;;;;;;;12.4;8.8;;;;;;;5.29;94.39648;914.0793;;;;
2024/01/17 14:31:48;;;;;;;10.4;8;;;;;;;5.29;95.0166;914.2245;;;;
2024/01/17 14:34:16;;;;;;;12.4;8.2;;;;;;;5.32;95.66406;914.1494;;;;
2024/01/17 14:36:41;;;;;;;11;8.5;;;;;;;5.28;95.91699;914.122;;;;
2024/01/17 14:39:20;;;;;;;14.6;9.7;;;;;;;5.42;94.81738;914.0792;;;;
2024/01/17 14:41:42;;;;;;;16.6;11.2;;;;;;;5.32;95.10156;913.9963;;;;
2024/01/17 14:44:15;;;;;;;18.4;12.1;;;;;;;5.26;95.64063;914.1437;;;;
2024/01/17 14:46:46;;;;;;;14.7;9.9;;;;;;;5.27;95.87012;914.0023;;;;
2024/01/17 14:49:16;;;;;;;14.1;9.8;;;;;;;5.23;96.17578;913.998;;;;
2024/01/17 14:51:48;;;;;;;15.5;9.9;;;;;;;5.3;95.40234;914.0508;;;;
2024/01/17 14:54:17;;;;;;;16.3;10.8;;;;;;;5.21;95.54883;913.9437;;;;
2024/01/17 14:56:45;;;;;;;16.3;11.1;;;;;;;5.14;95.5332;914.0381;;;;
2024/01/17 14:59:17;;;;;;;18.2;12.1;;;;;;;5.09;95.14844;914.0291;;;;
2024/01/17 15:01:49;;;;;;;17.5;11.8;;;;;;;5.05;95.3457;914.139;;;;
2024/01/17 15:04:17;;;;;;;16.6;11.5;;;;;;;4.99;95.64941;914.0533;;;;
2024/01/17 15:06:42;;;;;;;15;10.3;;;;;;;5.06;95.60742;914.0988;;;;
2024/01/17 15:09:12;;;;;;;16.6;11.8;;;;;;;5;95.78613;913.9736;;;;
2024/01/17 15:11:33;;;;;;;15.1;11.6;;;;;;;5.01;96.04785;913.9289;;;;
2024/01/17 15:14:01;;;;;;;15.4;11.3;;;;;;;4.93;95.95996;913.8939;;;;
2024/01/17 15:16:27;;;;;;;14.4;10.4;;;;;;;4.95;96.33789;913.8409;;;;
2024/01/17 15:18:53;;;;;;;15.3;11.5;;;;;;;4.95;96.94629;913.7195;;;;
2024/01/17 15:21:20;;;;;;;17.8;12.4;;;;;;;4.91;97.79297;913.6166;;;;
2024/01/17 15:23:45;;;;;;;20.1;12.8;;;;;;;4.91;97.86035;913.6063;;;;
2024/01/17 15:26:11;;;;;;;17;11.8;;;;;;;5.03;96.78418;913.5337;;;;
2024/01/17 15:28:40;;;;;;;17.7;12.3;;;;;;;4.86;98.24219;913.4965;;;;
2024/01/17 15:31:09;;;;;;;20.5;13.3;;;;;;;4.95;98.0625;913.6326;;;;
2024/01/17 15:33:35;;;;;;;26.3;15.4;;;;;;;4.89;97.49805;913.6372;;;;
2024/01/17 15:36:07;;;;;;;19.7;13.7;;;;;;;4.85;97.3291;913.7031;;;;
2024/01/17 15:38:31;;;;;;;24.5;15.3;;;;;;;4.83;97.04199;913.812;;;;
2024/01/17 15:41:01;;;;;;;22.1;15.7;;;;;;;4.79;97.4375;913.8295;;;;
2024/01/17 15:43:26;;;;;;;33.3;20.3;;;;;;;4.73;97.80762;913.7543;;;;